sensor_id;sensor_type;location;lat;lon;timestamp;temperature;humidity
74809;DHT22;63338;39.544;2.596;2023-04-01T00:01:10;19.20;70.60
74809;DHT22;63338;39.544;2.596;2023-04-01T00:03:39;19.10;70.60
74809;DHT22;63338;39.544;2.596;2023-04-01T00:06:05;19.00;70.90
74809;DHT22;63338;39.544;2.596;2023-04-01T00:08:32;19.10;71.00
74809;DHT22;63338;39.544;2.596;2023-04-01T00:10:58;19.00;70.80
74809;DHT22;63338;39.544;2.596;2023-04-01T00:13:26;19.00;71.20
74809;DHT22;63338;39.544;2.596;2023-04-01T00:15:53;19.00;71.40
74809;DHT22;63338;39.544;2.596;2023-04-01T00:18:19;19.00;71.20
74809;DHT22;63338;39.544;2.596;2023-04-01T00:20:48;19.00;71.10
74809;DHT22;63338;39.544;2.596;2023-04-01T00:23:18;19.00;71.00
74809;DHT22;63338;39.544;2.596;2023-04-01T00:25:45;19.00;71.10
74809;DHT22;63338;39.544;2.596;2023-04-01T00:28:15;18.90;71.10
74809;DHT22;63338;39.544;2.596;2023-04-01T00:30:41;18.80;71.30
74809;DHT22;63338;39.544;2.596;2023-04-01T00:33:10;18.90;71.60
74809;DHT22;63338;39.544;2.596;2023-04-01T00:35:37;18.80;72.10
74809;DHT22;63338;39.544;2.596;2023-04-01T00:38:05;18.80;71.80
74809;DHT22;63338;39.544;2.596;2023-04-01T00:40:50;18.80;72.10
74809;DHT22;63338;39.544;2.596;2023-04-01T00:43:23;18.70;72.40
74809;DHT22;63338;39.544;2.596;2023-04-01T00:45:50;18.70;72.80
74809;DHT22;63338;39.544;2.596;2023-04-01T00:48:22;18.70;72.90
74809;DHT22;63338;39.544;2.596;2023-04-01T00:50:53;18.60;72.60
74809;DHT22;63338;39.544;2.596;2023-04-01T00:53:20;18.60;73.00
74809;DHT22;63338;39.544;2.596;2023-04-01T00:56:10;18.60;73.10
74809;DHT22;63338;39.544;2.596;2023-04-01T00:58:41;18.50;72.70
74809;DHT22;63338;39.544;2.596;2023-04-01T01:01:08;18.50;72.60
74809;DHT22;63338;39.544;2.596;2023-04-01T01:03:35;18.40;72.50
74809;DHT22;63338;39.544;2.596;2023-04-01T01:06:08;18.40;72.40
74809;DHT22;63338;39.544;2.596;2023-04-01T01:11:10;18.30;71.70
74809;DHT22;63338;39.544;2.596;2023-04-01T01:16:27;18.30;71.60
74809;DHT22;63338;39.544;2.596;2023-04-01T01:19:11;18.30;71.80
74809;DHT22;63338;39.544;2.596;2023-04-01T01:27:19;18.20;71.70
74809;DHT22;63338;39.544;2.596;2023-04-01T01:30:05;18.20;71.70
74809;DHT22;63338;39.544;2.596;2023-04-01T01:32:54;18.20;71.90
74809;DHT22;63338;39.544;2.596;2023-04-01T01:35:31;18.10;73.40
74809;DHT22;63338;39.544;2.596;2023-04-01T01:38:23;18.00;72.80
74809;DHT22;63338;39.544;2.596;2023-04-01T01:40:53;18.00;73.10
74809;DHT22;63338;39.544;2.596;2023-04-01T01:43:26;18.00;73.10
74809;DHT22;63338;39.544;2.596;2023-04-01T01:46:01;18.00;73.30
74809;DHT22;63338;39.544;2.596;2023-04-01T01:48:29;17.90;73.20
74809;DHT22;63338;39.544;2.596;2023-04-01T01:50:56;17.90;73.10
74809;DHT22;63338;39.544;2.596;2023-04-01T01:53:22;18.00;73.10
74809;DHT22;63338;39.544;2.596;2023-04-01T01:55:48;18.00;73.10
74809;DHT22;63338;39.544;2.596;2023-04-01T01:58:32;17.90;73.00
74809;DHT22;63338;39.544;2.596;2023-04-01T02:01:08;17.90;72.90
74809;DHT22;63338;39.544;2.596;2023-04-01T02:03:39;17.90;73.00
74809;DHT22;63338;39.544;2.596;2023-04-01T02:06:08;18.00;73.10
74809;DHT22;63338;39.544;2.596;2023-04-01T02:08:55;17.80;73.20
74809;DHT22;63338;39.544;2.596;2023-04-01T02:11:35;17.90;73.30
74809;DHT22;63338;39.544;2.596;2023-04-01T02:17:15;17.80;73.30
74809;DHT22;63338;39.544;2.596;2023-04-01T02:19:56;17.90;73.20
74809;DHT22;63338;39.544;2.596;2023-04-01T02:22:28;17.80;73.20
74809;DHT22;63338;39.544;2.596;2023-04-01T02:24:59;17.70;73.20
74809;DHT22;63338;39.544;2.596;2023-04-01T02:27:26;17.80;73.10
74809;DHT22;63338;39.544;2.596;2023-04-01T02:29:52;17.80;73.30
74809;DHT22;63338;39.544;2.596;2023-04-01T02:32:20;17.80;72.90
74809;DHT22;63338;39.544;2.596;2023-04-01T02:34:47;17.80;73.10
74809;DHT22;63338;39.544;2.596;2023-04-01T02:37:14;17.80;72.90
74809;DHT22;63338;39.544;2.596;2023-04-01T02:39:40;17.80;72.70
74809;DHT22;63338;39.544;2.596;2023-04-01T02:42:08;17.80;72.80
74809;DHT22;63338;39.544;2.596;2023-04-01T02:44:34;17.90;72.80
74809;DHT22;63338;39.544;2.596;2023-04-01T02:47:01;17.80;72.90
74809;DHT22;63338;39.544;2.596;2023-04-01T02:49:27;17.90;72.60
74809;DHT22;63338;39.544;2.596;2023-04-01T02:51:53;17.80;72.50
74809;DHT22;63338;39.544;2.596;2023-04-01T02:54:19;17.80;72.20
74809;DHT22;63338;39.544;2.596;2023-04-01T02:56:45;17.90;72.20
74809;DHT22;63338;39.544;2.596;2023-04-01T02:59:12;17.80;72.50
74809;DHT22;63338;39.544;2.596;2023-04-01T03:01:41;17.90;72.30
74809;DHT22;63338;39.544;2.596;2023-04-01T03:04:07;17.90;72.00
74809;DHT22;63338;39.544;2.596;2023-04-01T03:06:33;17.90;72.30
74809;DHT22;63338;39.544;2.596;2023-04-01T03:08:59;17.90;72.00
74809;DHT22;63338;39.544;2.596;2023-04-01T03:11:25;17.90;72.00
74809;DHT22;63338;39.544;2.596;2023-04-01T03:13:51;17.90;72.20
74809;DHT22;63338;39.544;2.596;2023-04-01T03:16:18;18.00;72.00
74809;DHT22;63338;39.544;2.596;2023-04-01T03:18:44;17.90;72.30
74809;DHT22;63338;39.544;2.596;2023-04-01T03:21:21;18.00;72.30
74809;DHT22;63338;39.544;2.596;2023-04-01T03:23:47;17.90;72.70
74809;DHT22;63338;39.544;2.596;2023-04-01T03:26:14;17.90;72.90
74809;DHT22;63338;39.544;2.596;2023-04-01T03:28:43;17.90;72.80
74809;DHT22;63338;39.544;2.596;2023-04-01T03:31:10;17.80;73.20
74809;DHT22;63338;39.544;2.596;2023-04-01T03:33:37;17.90;73.20
74809;DHT22;63338;39.544;2.596;2023-04-01T03:36:03;17.90;73.30
74809;DHT22;63338;39.544;2.596;2023-04-01T03:38:33;17.90;73.10
74809;DHT22;63338;39.544;2.596;2023-04-01T03:41:00;17.70;72.90
74809;DHT22;63338;39.544;2.596;2023-04-01T03:43:26;17.80;72.80
74809;DHT22;63338;39.544;2.596;2023-04-01T03:45:52;17.80;73.20
74809;DHT22;63338;39.544;2.596;2023-04-01T03:48:18;17.80;73.30
74809;DHT22;63338;39.544;2.596;2023-04-01T03:50:44;17.80;73.00
74809;DHT22;63338;39.544;2.596;2023-04-01T03:53:10;17.80;73.00
74809;DHT22;63338;39.544;2.596;2023-04-01T03:55:37;17.80;72.90
74809;DHT22;63338;39.544;2.596;2023-04-01T03:58:04;17.80;72.90
74809;DHT22;63338;39.544;2.596;2023-04-01T04:00:31;17.90;73.10
74809;DHT22;63338;39.544;2.596;2023-04-01T04:02:58;17.90;72.90
74809;DHT22;63338;39.544;2.596;2023-04-01T04:05:25;17.90;72.80
74809;DHT22;63338;39.544;2.596;2023-04-01T04:07:52;17.80;73.00
74809;DHT22;63338;39.544;2.596;2023-04-01T04:10:19;17.70;73.00
74809;DHT22;63338;39.544;2.596;2023-04-01T04:12:50;17.80;72.90
74809;DHT22;63338;39.544;2.596;2023-04-01T04:15:16;17.70;73.00
74809;DHT22;63338;39.544;2.596;2023-04-01T04:17:43;17.70;73.40
74809;DHT22;63338;39.544;2.596;2023-04-01T04:20:09;17.70;73.20
74809;DHT22;63338;39.544;2.596;2023-04-01T04:22:35;17.70;73.40
74809;DHT22;63338;39.544;2.596;2023-04-01T04:25:01;17.70;73.40
74809;DHT22;63338;39.544;2.596;2023-04-01T04:27:27;17.60;73.60
74809;DHT22;63338;39.544;2.596;2023-04-01T04:29:53;17.60;73.70
74809;DHT22;63338;39.544;2.596;2023-04-01T04:32:19;17.60;73.40
74809;DHT22;63338;39.544;2.596;2023-04-01T04:34:46;17.60;73.60
74809;DHT22;63338;39.544;2.596;2023-04-01T04:37:12;17.50;73.60
74809;DHT22;63338;39.544;2.596;2023-04-01T04:39:37;17.60;73.90
74809;DHT22;63338;39.544;2.596;2023-04-01T04:42:04;17.40;73.80
74809;DHT22;63338;39.544;2.596;2023-04-01T04:44:30;17.40;74.20
74809;DHT22;63338;39.544;2.596;2023-04-01T04:46:57;17.30;74.20
74809;DHT22;63338;39.544;2.596;2023-04-01T04:49:23;17.30;74.20
74809;DHT22;63338;39.544;2.596;2023-04-01T04:51:49;17.20;74.20
74809;DHT22;63338;39.544;2.596;2023-04-01T04:54:15;17.20;74.40
74809;DHT22;63338;39.544;2.596;2023-04-01T04:56:41;17.10;74.60
74809;DHT22;63338;39.544;2.596;2023-04-01T04:59:07;17.00;74.70
74809;DHT22;63338;39.544;2.596;2023-04-01T05:01:33;17.00;74.80
74809;DHT22;63338;39.544;2.596;2023-04-01T05:03:59;16.90;75.00
74809;DHT22;63338;39.544;2.596;2023-04-01T05:06:26;16.90;75.00
74809;DHT22;63338;39.544;2.596;2023-04-01T05:08:55;16.90;75.20
74809;DHT22;63338;39.544;2.596;2023-04-01T05:11:22;16.70;75.50
74809;DHT22;63338;39.544;2.596;2023-04-01T05:13:48;16.80;75.60
74809;DHT22;63338;39.544;2.596;2023-04-01T05:16:18;16.60;75.60
74809;DHT22;63338;39.544;2.596;2023-04-01T05:18:45;16.60;75.90
74809;DHT22;63338;39.544;2.596;2023-04-01T05:21:12;16.50;76.00
74809;DHT22;63338;39.544;2.596;2023-04-01T05:23:39;16.50;76.00
74809;DHT22;63338;39.544;2.596;2023-04-01T05:26:06;16.60;76.20
74809;DHT22;63338;39.544;2.596;2023-04-01T05:28:33;16.50;76.40
74809;DHT22;63338;39.544;2.596;2023-04-01T05:31:00;16.50;76.20
74809;DHT22;63338;39.544;2.596;2023-04-01T05:33:27;16.50;76.40
74809;DHT22;63338;39.544;2.596;2023-04-01T05:35:54;16.40;76.50
74809;DHT22;63338;39.544;2.596;2023-04-01T05:38:20;16.40;76.50
74809;DHT22;63338;39.544;2.596;2023-04-01T05:40:46;16.30;76.60
74809;DHT22;63338;39.544;2.596;2023-04-01T05:43:12;16.20;76.90
74809;DHT22;63338;39.544;2.596;2023-04-01T05:45:38;16.20;77.10
74809;DHT22;63338;39.544;2.596;2023-04-01T05:48:04;16.10;77.20
74809;DHT22;63338;39.544;2.596;2023-04-01T05:50:31;16.10;77.20
74809;DHT22;63338;39.544;2.596;2023-04-01T05:52:57;16.10;77.50
74809;DHT22;63338;39.544;2.596;2023-04-01T05:55:23;16.10;77.70
74809;DHT22;63338;39.544;2.596;2023-04-01T05:57:49;16.20;77.50
74809;DHT22;63338;39.544;2.596;2023-04-01T06:00:16;16.10;77.60
74809;DHT22;63338;39.544;2.596;2023-04-01T06:02:43;16.10;77.40
74809;DHT22;63338;39.544;2.596;2023-04-01T06:05:21;16.20;77.50
74809;DHT22;63338;39.544;2.596;2023-04-01T06:07:47;16.20;77.60
74809;DHT22;63338;39.544;2.596;2023-04-01T06:10:18;16.10;77.70
74809;DHT22;63338;39.544;2.596;2023-04-01T06:18:35;16.20;78.00
74809;DHT22;63338;39.544;2.596;2023-04-01T06:38:04;16.40;78.30
74809;DHT22;63338;39.544;2.596;2023-04-01T06:54:05;17.00;77.50
74809;DHT22;63338;39.544;2.596;2023-04-01T06:56:33;17.10;77.00
74809;DHT22;63338;39.544;2.596;2023-04-01T06:59:12;17.30;76.90
74809;DHT22;63338;39.544;2.596;2023-04-01T07:01:54;17.50;76.40
74809;DHT22;63338;39.544;2.596;2023-04-01T07:04:36;17.60;75.80
74809;DHT22;63338;39.544;2.596;2023-04-01T07:07:25;17.80;74.80
74809;DHT22;63338;39.544;2.596;2023-04-01T07:09:56;18.10;74.00
74809;DHT22;63338;39.544;2.596;2023-04-01T07:12:45;18.30;72.00
74809;DHT22;63338;39.544;2.596;2023-04-01T07:15:21;18.50;70.70
74809;DHT22;63338;39.544;2.596;2023-04-01T07:17:54;18.60;70.20
74809;DHT22;63338;39.544;2.596;2023-04-01T07:20:31;18.70;69.90
74809;DHT22;63338;39.544;2.596;2023-04-01T07:23:03;18.90;69.50
74809;DHT22;63338;39.544;2.596;2023-04-01T07:25:45;18.90;68.80
74809;DHT22;63338;39.544;2.596;2023-04-01T07:28:14;18.90;68.60
74809;DHT22;63338;39.544;2.596;2023-04-01T07:33:33;18.90;68.60
74809;DHT22;63338;39.544;2.596;2023-04-01T07:36:18;19.00;68.20
74809;DHT22;63338;39.544;2.596;2023-04-01T07:44:25;19.00;68.30
74809;DHT22;63338;39.544;2.596;2023-04-01T07:47:34;19.20;68.10
74809;DHT22;63338;39.544;2.596;2023-04-01T07:50:13;19.50;67.50
74809;DHT22;63338;39.544;2.596;2023-04-01T08:01:03;20.70;65.80
74809;DHT22;63338;39.544;2.596;2023-04-01T08:06:31;21.30;62.80
74809;DHT22;63338;39.544;2.596;2023-04-01T08:11:47;21.70;63.00
74809;DHT22;63338;39.544;2.596;2023-04-01T08:14:32;21.90;62.60
74809;DHT22;63338;39.544;2.596;2023-04-01T08:17:05;22.20;62.10
74809;DHT22;63338;39.544;2.596;2023-04-01T08:22:43;22.70;60.40
74809;DHT22;63338;39.544;2.596;2023-04-01T08:25:26;23.00;59.20
74809;DHT22;63338;39.544;2.596;2023-04-01T08:30:58;23.00;58.90
74809;DHT22;63338;39.544;2.596;2023-04-01T08:33:31;23.10;58.70
74809;DHT22;63338;39.544;2.596;2023-04-01T08:36:12;23.00;58.70
74809;DHT22;63338;39.544;2.596;2023-04-01T08:38:46;22.80;59.40
74809;DHT22;63338;39.544;2.596;2023-04-01T08:55:31;22.60;59.70
74809;DHT22;63338;39.544;2.596;2023-04-01T09:00:35;22.90;58.40
74809;DHT22;63338;39.544;2.596;2023-04-01T09:06:19;23.30;57.60
74809;DHT22;63338;39.544;2.596;2023-04-01T09:09:23;23.30;57.90
74809;DHT22;63338;39.544;2.596;2023-04-01T09:17:36;23.80;57.40
74809;DHT22;63338;39.544;2.596;2023-04-01T09:28:49;23.30;58.90
74809;DHT22;63338;39.544;2.596;2023-04-01T09:37:19;23.60;58.80
74809;DHT22;63338;39.544;2.596;2023-04-01T09:42:39;23.40;59.00
74809;DHT22;63338;39.544;2.596;2023-04-01T09:45:43;23.10;59.30
74809;DHT22;63338;39.544;2.596;2023-04-01T09:48:55;22.80;60.40
74809;DHT22;63338;39.544;2.596;2023-04-01T09:51:37;22.80;59.70
74809;DHT22;63338;39.544;2.596;2023-04-01T09:54:28;23.10;58.90
74809;DHT22;63338;39.544;2.596;2023-04-01T10:03:21;23.60;57.20
74809;DHT22;63338;39.544;2.596;2023-04-01T10:12:33;23.00;55.10
74809;DHT22;63338;39.544;2.596;2023-04-01T10:15:27;23.60;54.40
74809;DHT22;63338;39.544;2.596;2023-04-01T10:23:48;24.30;51.40
74809;DHT22;63338;39.544;2.596;2023-04-01T10:29:26;25.10;50.20
74809;DHT22;63338;39.544;2.596;2023-04-01T10:32:25;25.00;49.30
74809;DHT22;63338;39.544;2.596;2023-04-01T10:35:20;24.90;50.00
74809;DHT22;63338;39.544;2.596;2023-04-01T10:40:52;25.00;48.50
74809;DHT22;63338;39.544;2.596;2023-04-01T10:46:53;25.30;47.70
74809;DHT22;63338;39.544;2.596;2023-04-01T10:49:48;25.90;47.30
74809;DHT22;63338;39.544;2.596;2023-04-01T10:55:37;26.20;45.90
74809;DHT22;63338;39.544;2.596;2023-04-01T11:01:16;25.60;46.50
74809;DHT22;63338;39.544;2.596;2023-04-01T11:18:29;26.60;46.40
74809;DHT22;63338;39.544;2.596;2023-04-01T11:24:02;26.50;47.90
74809;DHT22;63338;39.544;2.596;2023-04-01T11:41:10;25.30;49.20
74809;DHT22;63338;39.544;2.596;2023-04-01T11:43:49;25.10;50.00
74809;DHT22;63338;39.544;2.596;2023-04-01T11:46:23;24.80;50.50
74809;DHT22;63338;39.544;2.596;2023-04-01T11:49:28;24.70;50.90
74809;DHT22;63338;39.544;2.596;2023-04-01T11:52:18;24.90;50.80
74809;DHT22;63338;39.544;2.596;2023-04-01T12:06:11;24.50;49.80
74809;DHT22;63338;39.544;2.596;2023-04-01T12:11:38;24.00;50.30
74809;DHT22;63338;39.544;2.596;2023-04-01T12:29:28;22.90;53.70
74809;DHT22;63338;39.544;2.596;2023-04-01T12:32:30;22.90;52.40
74809;DHT22;63338;39.544;2.596;2023-04-01T12:43:28;22.40;55.20
74809;DHT22;63338;39.544;2.596;2023-04-01T12:46:20;22.30;55.90
74809;DHT22;63338;39.544;2.596;2023-04-01T12:55:18;22.50;55.20
74809;DHT22;63338;39.544;2.596;2023-04-01T12:58:30;22.30;54.80
74809;DHT22;63338;39.544;2.596;2023-04-01T13:16:42;21.40;54.70
74809;DHT22;63338;39.544;2.596;2023-04-01T13:22:39;21.50;54.60
74809;DHT22;63338;39.544;2.596;2023-04-01T13:28:43;21.50;53.00
74809;DHT22;63338;39.544;2.596;2023-04-01T13:38:37;21.80;51.00
74809;DHT22;63338;39.544;2.596;2023-04-01T13:44:30;22.20;50.20
74809;DHT22;63338;39.544;2.596;2023-04-01T14:05:44;22.10;52.50
74809;DHT22;63338;39.544;2.596;2023-04-01T14:08:40;21.90;53.20
74809;DHT22;63338;39.544;2.596;2023-04-01T14:14:24;21.60;54.60
74809;DHT22;63338;39.544;2.596;2023-04-01T14:20:13;21.30;54.60
74809;DHT22;63338;39.544;2.596;2023-04-01T14:26:19;21.00;56.00
74809;DHT22;63338;39.544;2.596;2023-04-01T14:46:38;20.50;57.70
74809;DHT22;63338;39.544;2.596;2023-04-01T14:49:20;20.50;57.20
74809;DHT22;63338;39.544;2.596;2023-04-01T14:51:48;20.50;57.30
74809;DHT22;63338;39.544;2.596;2023-04-01T14:54:19;20.50;57.00
74809;DHT22;63338;39.544;2.596;2023-04-01T14:59:29;20.50;57.30
74809;DHT22;63338;39.544;2.596;2023-04-01T15:02:24;20.40;57.10
74809;DHT22;63338;39.544;2.596;2023-04-01T15:08:02;20.40;57.40
74809;DHT22;63338;39.544;2.596;2023-04-01T15:22:55;20.30;57.80
74809;DHT22;63338;39.544;2.596;2023-04-01T15:28:21;20.40;58.80
74809;DHT22;63338;39.544;2.596;2023-04-01T15:34:07;20.40;59.00
74809;DHT22;63338;39.544;2.596;2023-04-01T15:39:44;20.40;59.60
74809;DHT22;63338;39.544;2.596;2023-04-01T15:42:28;20.30;60.00
74809;DHT22;63338;39.544;2.596;2023-04-01T15:45:36;20.30;60.30
74809;DHT22;63338;39.544;2.596;2023-04-01T16:19:16;20.10;66.50
74809;DHT22;63338;39.544;2.596;2023-04-01T16:27:29;19.90;67.30
74809;DHT22;63338;39.544;2.596;2023-04-01T16:40:14;19.50;64.50
74809;DHT22;63338;39.544;2.596;2023-04-01T16:42:52;19.50;63.70
74809;DHT22;63338;39.544;2.596;2023-04-01T16:47:56;19.40;67.30
74809;DHT22;63338;39.544;2.596;2023-04-01T16:50:37;19.40;67.70
74809;DHT22;63338;39.544;2.596;2023-04-01T16:54:00;19.30;67.50
74809;DHT22;63338;39.544;2.596;2023-04-01T16:56:54;19.30;68.00
74809;DHT22;63338;39.544;2.596;2023-04-01T17:03:28;19.10;68.40
74809;DHT22;63338;39.544;2.596;2023-04-01T17:11:49;19.30;63.50
74809;DHT22;63338;39.544;2.596;2023-04-01T17:20:11;19.00;62.20
74809;DHT22;63338;39.544;2.596;2023-04-01T17:22:59;19.10;61.50
74809;DHT22;63338;39.544;2.596;2023-04-01T17:28:23;19.00;61.40
74809;DHT22;63338;39.544;2.596;2023-04-01T17:42:42;18.80;65.90
74809;DHT22;63338;39.544;2.596;2023-04-01T17:48:32;18.80;67.60
74809;DHT22;63338;39.544;2.596;2023-04-01T18:05:37;18.40;67.80
74809;DHT22;63338;39.544;2.596;2023-04-01T18:08:29;18.40;68.00
74809;DHT22;63338;39.544;2.596;2023-04-01T18:11:20;18.40;68.60
74809;DHT22;63338;39.544;2.596;2023-04-01T18:17:12;18.30;69.20
74809;DHT22;63338;39.544;2.596;2023-04-01T18:22:45;18.10;71.10
74809;DHT22;63338;39.544;2.596;2023-04-01T18:25:22;18.10;71.30
74809;DHT22;63338;39.544;2.596;2023-04-01T18:28:17;18.00;71.60
74809;DHT22;63338;39.544;2.596;2023-04-01T18:31:39;17.90;71.90
74809;DHT22;63338;39.544;2.596;2023-04-01T18:36:55;17.90;72.10
74809;DHT22;63338;39.544;2.596;2023-04-01T18:45:58;17.70;72.60
74809;DHT22;63338;39.544;2.596;2023-04-01T18:49:00;17.70;72.70
74809;DHT22;63338;39.544;2.596;2023-04-01T18:54:02;17.60;72.90
74809;DHT22;63338;39.544;2.596;2023-04-01T18:56:41;17.50;73.00
74809;DHT22;63338;39.544;2.596;2023-04-01T19:04:52;17.50;73.30
74809;DHT22;63338;39.544;2.596;2023-04-01T19:25:09;17.40;73.50
74809;DHT22;63338;39.544;2.596;2023-04-01T19:27:58;17.50;73.70
74809;DHT22;63338;39.544;2.596;2023-04-01T19:33:49;17.40;73.60
74809;DHT22;63338;39.544;2.596;2023-04-01T19:36:48;17.40;73.80
74809;DHT22;63338;39.544;2.596;2023-04-01T19:39:27;17.20;73.90
74809;DHT22;63338;39.544;2.596;2023-04-01T19:48:43;17.10;74.10
74809;DHT22;63338;39.544;2.596;2023-04-01T19:51:43;17.00;74.20
74809;DHT22;63338;39.544;2.596;2023-04-01T19:54:21;16.90;74.00
74809;DHT22;63338;39.544;2.596;2023-04-01T19:57:00;16.90;73.90
74809;DHT22;63338;39.544;2.596;2023-04-01T19:59:31;16.90;73.90
74809;DHT22;63338;39.544;2.596;2023-04-01T20:07:53;16.80;73.80
74809;DHT22;63338;39.544;2.596;2023-04-01T20:16:06;16.70;74.00
74809;DHT22;63338;39.544;2.596;2023-04-01T20:18:47;16.80;74.00
74809;DHT22;63338;39.544;2.596;2023-04-01T20:21:19;16.70;73.80
74809;DHT22;63338;39.544;2.596;2023-04-01T20:23:58;16.70;74.00
74809;DHT22;63338;39.544;2.596;2023-04-01T20:26:39;16.70;74.10
74809;DHT22;63338;39.544;2.596;2023-04-01T20:29:41;16.70;74.30
74809;DHT22;63338;39.544;2.596;2023-04-01T20:32:40;16.70;74.50
74809;DHT22;63338;39.544;2.596;2023-04-01T20:49:51;16.90;75.30
74809;DHT22;63338;39.544;2.596;2023-04-01T20:52:42;16.90;75.40
74809;DHT22;63338;39.544;2.596;2023-04-01T20:58:28;17.00;76.00
74809;DHT22;63338;39.544;2.596;2023-04-01T21:01:35;17.00;76.50
74809;DHT22;63338;39.544;2.596;2023-04-01T21:17:49;17.10;83.10
74809;DHT22;63338;39.544;2.596;2023-04-01T21:20:48;17.10;84.30
74809;DHT22;63338;39.544;2.596;2023-04-01T21:26:33;17.10;85.40
74809;DHT22;63338;39.544;2.596;2023-04-01T21:29:26;17.20;85.90
74809;DHT22;63338;39.544;2.596;2023-04-01T21:35:35;17.10;86.70
74809;DHT22;63338;39.544;2.596;2023-04-01T21:37:42;17.10;86.70
74809;DHT22;63338;39.544;2.596;2023-04-01T21:40:41;17.10;86.60
74809;DHT22;63338;39.544;2.596;2023-04-01T21:49:18;17.10;87.20
74809;DHT22;63338;39.544;2.596;2023-04-01T21:52:05;17.00;87.50
74809;DHT22;63338;39.544;2.596;2023-04-01T21:55:09;17.00;87.80
74809;DHT22;63338;39.544;2.596;2023-04-01T22:00:32;17.10;88.10
74809;DHT22;63338;39.544;2.596;2023-04-01T22:05:56;17.10;88.20
74809;DHT22;63338;39.544;2.596;2023-04-01T22:08:46;17.10;88.00
74809;DHT22;63338;39.544;2.596;2023-04-01T22:14:43;16.90;82.10
74809;DHT22;63338;39.544;2.596;2023-04-01T22:17:44;16.10;80.30
74809;DHT22;63338;39.544;2.596;2023-04-01T22:20:31;15.30;81.40
74809;DHT22;63338;39.544;2.596;2023-04-01T22:29:09;14.00;83.60
74809;DHT22;63338;39.544;2.596;2023-04-01T22:31:52;13.70;84.60
74809;DHT22;63338;39.544;2.596;2023-04-01T22:34:42;13.60;85.30
74809;DHT22;63338;39.544;2.596;2023-04-01T22:51:18;13.80;85.00
74809;DHT22;63338;39.544;2.596;2023-04-01T23:00:12;13.90;79.30
74809;DHT22;63338;39.544;2.596;2023-04-01T23:05:26;14.20;78.30
74809;DHT22;63338;39.544;2.596;2023-04-01T23:10:47;14.20;77.10
74809;DHT22;63338;39.544;2.596;2023-04-01T23:13:20;14.40;76.90
74809;DHT22;63338;39.544;2.596;2023-04-01T23:16:00;14.30;76.30
74809;DHT22;63338;39.544;2.596;2023-04-01T23:18:52;14.30;75.50
74809;DHT22;63338;39.544;2.596;2023-04-01T23:21:35;14.40;74.40
74809;DHT22;63338;39.544;2.596;2023-04-01T23:27:36;14.30;78.00
74809;DHT22;63338;39.544;2.596;2023-04-01T23:36:00;13.50;83.40
74809;DHT22;63338;39.544;2.596;2023-04-01T23:38:41;13.30;84.20
74809;DHT22;63338;39.544;2.596;2023-04-01T23:41:36;13.20;85.40
74809;DHT22;63338;39.544;2.596;2023-04-01T23:46:52;13.10;85.30
74809;DHT22;63338;39.544;2.596;2023-04-01T23:49:27;13.10;86.70
74809;DHT22;63338;39.544;2.596;2023-04-01T23:52:27;13.10;87.00
